createdAt,value
2022-09-12T00:06:43.093Z,984.9
2022-09-12T00:21:11.765Z,984.9
2022-09-12T00:35:40.459Z,984.8
2022-09-12T00:50:09.687Z,984.6
2022-09-12T01:04:38.672Z,984.5
2022-09-12T01:19:07.696Z,984.3
2022-09-12T01:33:37.090Z,984.3
2022-09-12T01:48:06.285Z,984.3
2022-09-12T02:02:34.908Z,984.3
2022-09-12T02:17:02.170Z,984.2
2022-09-12T02:31:31.948Z,984.2
2022-09-12T02:46:01.410Z,984.1
2022-09-12T03:00:31.902Z,984
2022-09-12T03:15:01.687Z,983.9
2022-09-12T03:29:31.456Z,984
2022-09-12T03:44:00.615Z,984
2022-09-12T03:58:29.743Z,984.1
2022-09-12T04:12:59.325Z,983.9
2022-09-12T04:27:29.376Z,983.8
2022-09-12T04:41:58.320Z,983.8
2022-09-12T04:56:27.660Z,983.8
2022-09-12T05:10:58.629Z,983.7
2022-09-12T05:25:27.837Z,983.8
2022-09-12T05:39:56.757Z,983.7
2022-09-12T05:54:32.004Z,983.7
2022-09-12T06:08:58.059Z,983.7
2022-09-12T06:23:25.734Z,983.6
2022-09-12T06:37:56.381Z,983.6
2022-09-12T06:52:27.487Z,983.6
2022-09-12T07:06:57.474Z,983.7
2022-09-12T07:21:29.184Z,983.6
2022-09-12T07:36:00.117Z,983.6
2022-09-12T07:50:30.795Z,983.7
2022-09-12T08:05:01.681Z,983.8
2022-09-12T08:19:33.939Z,983.9
2022-09-12T08:34:05.082Z,983.8
2022-09-12T08:48:33.046Z,983.8
2022-09-12T09:03:06.005Z,983.7
2022-09-12T09:17:38.384Z,983.7
2022-09-12T09:32:08.823Z,983.5
2022-09-12T09:46:33.751Z,983.5
2022-09-12T10:01:04.478Z,983.4
2022-09-12T10:15:34.229Z,983.3
2022-09-12T10:30:06.100Z,983.2
2022-09-12T10:44:36.916Z,983.1
2022-09-12T10:59:06.065Z,982.9
2022-09-12T11:13:37.217Z,982.9
2022-09-12T11:28:05.501Z,982.8
2022-09-12T11:42:35.560Z,982.6
2022-09-12T11:57:03.883Z,982.4
2022-09-12T12:11:32.184Z,982.3
2022-09-12T12:26:00.338Z,982.2
2022-09-12T12:40:29.665Z,982.1
2022-09-12T12:55:00.708Z,982
2022-09-12T13:09:30.268Z,981.7
2022-09-12T13:24:03.498Z,981.5
2022-09-12T13:38:35.676Z,981.3
2022-09-12T13:53:03.841Z,981.2
2022-09-12T14:07:34.031Z,981.3
2022-09-12T14:22:03.189Z,981.3
2022-09-12T14:36:33.095Z,981.1
2022-09-12T14:51:01.730Z,981.1
2022-09-12T15:05:30.343Z,980.9
2022-09-12T15:20:01.706Z,980.7
2022-09-12T15:34:31.549Z,980.7
2022-09-12T15:49:01.635Z,980.6
2022-09-12T16:03:30.483Z,980.5
2022-09-12T16:17:59.335Z,980.3
2022-09-12T16:32:26.646Z,980.2
2022-09-12T16:46:54.959Z,980.1
2022-09-12T17:01:24.698Z,979.9
2022-09-12T17:15:53.779Z,979.9
2022-09-12T17:30:22.577Z,979.9
2022-09-12T17:44:51.801Z,979.7
2022-09-12T17:59:21.103Z,979.8
2022-09-12T18:13:51.503Z,979.8
2022-09-12T18:28:18.953Z,979.9
2022-09-12T18:42:49.172Z,979.8
2022-09-12T18:57:16.245Z,979.7
2022-09-12T19:11:44.733Z,979.7
2022-09-12T19:26:15.687Z,979.7
2022-09-12T19:40:45.196Z,979.5
2022-09-12T19:55:14.097Z,979.4
2022-09-12T20:09:42.942Z,979.3
2022-09-12T20:24:11.442Z,979.4
2022-09-12T20:38:40.739Z,979.5
2022-09-12T20:53:09.836Z,979.4
2022-09-12T21:07:39.773Z,979.4
2022-09-12T21:22:05.131Z,979.3
2022-09-12T21:36:34.543Z,979.2
2022-09-12T21:51:04.372Z,979
2022-09-12T22:05:32.945Z,978.9
2022-09-12T22:20:01.323Z,978.9
2022-09-12T22:34:30.923Z,978.8
2022-09-12T22:49:00.095Z,978.9
2022-09-12T23:03:29.441Z,978.9
2022-09-12T23:17:58.791Z,979.1
2022-09-12T23:32:26.458Z,979
2022-09-12T23:46:56.012Z,979
